createdAt,value
2017-12-29T00:01:06.692Z,-1.00
2017-12-29T00:03:34.120Z,-1.00
2017-12-29T00:06:01.543Z,-1.20
2017-12-29T00:08:28.976Z,-1.30
2017-12-29T00:10:58.164Z,-1.60
2017-12-29T00:13:25.595Z,-1.60
2017-12-29T00:15:53.036Z,-1.80
2017-12-29T00:18:20.463Z,-1.90
2017-12-29T00:20:47.904Z,-2.00
2017-12-29T00:23:16.481Z,-2.20
2017-12-29T00:25:43.890Z,-2.20
2017-12-29T00:28:11.316Z,-2.20
2017-12-29T00:30:38.739Z,-2.20
2017-12-29T00:33:06.176Z,-2.40
2017-12-29T00:35:33.608Z,-2.40
2017-12-29T00:38:01.039Z,-2.50
2017-12-29T00:40:28.462Z,-2.40
2017-12-29T00:42:55.914Z,-2.40
2017-12-29T00:45:23.311Z,-2.40
2017-12-29T00:47:50.744Z,-2.40
2017-12-29T00:50:18.948Z,-2.50
2017-12-29T00:52:46.380Z,-2.50
2017-12-29T00:55:14.572Z,-2.40
2017-12-29T00:57:41.997Z,-2.40
2017-12-29T01:00:09.420Z,-2.50
2017-12-29T01:02:36.851Z,-2.50
2017-12-29T01:05:04.289Z,-2.50
2017-12-29T01:07:32.500Z,-2.50
2017-12-29T01:09:59.939Z,-2.60
2017-12-29T01:12:27.363Z,-2.70
2017-12-29T01:14:55.569Z,-2.80
2017-12-29T01:17:23.001Z,-2.80
2017-12-29T01:19:51.983Z,-2.90
2017-12-29T01:22:19.419Z,-3.00
2017-12-29T01:24:46.856Z,-3.00
2017-12-29T01:27:14.291Z,-3.00
2017-12-29T01:29:41.729Z,-3.00
2017-12-29T01:32:09.918Z,-3.00
2017-12-29T01:34:37.351Z,-3.00
2017-12-29T01:37:05.547Z,-3.10
2017-12-29T01:39:32.983Z,-3.10
2017-12-29T01:42:01.174Z,-3.10
2017-12-29T01:44:28.608Z,-3.10
2017-12-29T01:46:56.044Z,-3.10
2017-12-29T01:49:23.483Z,-3.10
2017-12-29T01:51:50.912Z,-3.10
2017-12-29T01:54:18.344Z,-3.00
2017-12-29T01:56:46.542Z,-2.90
2017-12-29T01:59:13.970Z,-2.90
2017-12-29T02:01:41.399Z,-2.90
2017-12-29T02:04:08.830Z,-3.00
2017-12-29T02:06:36.262Z,-3.00
2017-12-29T02:09:03.687Z,-3.10
2017-12-29T02:11:31.159Z,-3.20
2017-12-29T02:13:59.410Z,-3.20
2017-12-29T02:16:26.863Z,-3.30
2017-12-29T02:18:54.352Z,-3.30
2017-12-29T02:21:22.601Z,-3.20
2017-12-29T02:23:50.656Z,-3.20
2017-12-29T02:26:18.078Z,-3.20
2017-12-29T02:28:45.511Z,-3.20
2017-12-29T02:31:13.708Z,-3.20
2017-12-29T02:33:41.730Z,-3.30
2017-12-29T02:36:09.158Z,-3.30
2017-12-29T02:38:36.590Z,-3.30
2017-12-29T02:41:04.232Z,-3.20
2017-12-29T02:43:32.422Z,-2.90
2017-12-29T02:46:01.577Z,-2.90
2017-12-29T02:48:28.984Z,-2.80
2017-12-29T02:50:56.411Z,-2.90
2017-12-29T02:53:24.603Z,-2.70
2017-12-29T02:55:52.035Z,-2.70
2017-12-29T02:58:19.460Z,-2.60
2017-12-29T03:00:46.898Z,-2.60
2017-12-29T03:03:14.329Z,-2.50
2017-12-29T03:05:42.539Z,-2.20
2017-12-29T03:08:09.968Z,-2.30
2017-12-29T03:10:37.391Z,-2.10
2017-12-29T03:13:04.809Z,-2.00
2017-12-29T03:15:32.245Z,-1.90
2017-12-29T03:17:59.662Z,-1.80
2017-12-29T03:20:27.108Z,-1.80
2017-12-29T03:22:54.771Z,-1.80
2017-12-29T03:25:22.308Z,-1.80
2017-12-29T03:27:49.736Z,-1.70
2017-12-29T03:30:17.192Z,-1.70
2017-12-29T03:32:45.057Z,-1.70
2017-12-29T03:35:12.482Z,-1.80
2017-12-29T03:37:40.684Z,-1.80
2017-12-29T03:40:08.116Z,-1.90
2017-12-29T03:42:37.298Z,-2.00
2017-12-29T03:45:04.722Z,-2.00
2017-12-29T03:47:32.149Z,-2.10
2017-12-29T03:49:59.579Z,-2.10
2017-12-29T03:52:27.003Z,-2.20
2017-12-29T03:54:54.435Z,-2.20
2017-12-29T03:57:21.864Z,-2.20
2017-12-29T03:59:50.069Z,-2.30
2017-12-29T04:02:17.890Z,-2.30
2017-12-29T04:04:46.085Z,-2.20
2017-12-29T04:07:13.508Z,-2.20
2017-12-29T04:09:40.947Z,-2.10
2017-12-29T04:12:08.364Z,-2.10
2017-12-29T04:14:35.786Z,-2.00
2017-12-29T04:17:03.214Z,-2.00
2017-12-29T04:19:31.658Z,-2.00
2017-12-29T04:21:59.829Z,-2.10
2017-12-29T04:24:27.254Z,-2.10
2017-12-29T04:26:54.675Z,-2.10
2017-12-29T04:29:22.734Z,-2.10
2017-12-29T04:31:50.402Z,-2.00
2017-12-29T04:34:17.827Z,-2.10
2017-12-29T04:36:45.247Z,-2.20
2017-12-29T04:39:12.667Z,-2.30
2017-12-29T04:41:40.123Z,-2.40
2017-12-29T04:44:07.547Z,-2.50
2017-12-29T04:46:35.738Z,-2.70
2017-12-29T04:49:03.172Z,-2.70
2017-12-29T04:51:31.364Z,-2.90
2017-12-29T04:53:58.786Z,-2.90
2017-12-29T04:56:26.232Z,-2.90
2017-12-29T04:58:53.664Z,-2.80
2017-12-29T05:01:21.105Z,-2.60
2017-12-29T05:03:49.347Z,-2.40
2017-12-29T05:06:18.244Z,-2.10
2017-12-29T05:08:45.644Z,-2.10
2017-12-29T05:11:13.120Z,-1.90
2017-12-29T05:13:40.547Z,-1.80
2017-12-29T05:16:08.388Z,-1.70
2017-12-29T05:18:35.814Z,-1.60
2017-12-29T05:21:03.255Z,-1.60
2017-12-29T05:23:30.670Z,-1.50
2017-12-29T05:25:58.108Z,-1.50
2017-12-29T05:28:26.305Z,-1.40
2017-12-29T05:30:54.348Z,-1.40
2017-12-29T05:33:23.068Z,-1.40
2017-12-29T05:35:50.508Z,-1.40
2017-12-29T05:38:17.932Z,-1.40
2017-12-29T05:40:45.919Z,-1.30
2017-12-29T05:43:14.537Z,-1.30
2017-12-29T05:45:41.970Z,-1.40
2017-12-29T05:48:10.693Z,-1.30
2017-12-29T05:50:38.127Z,-1.30
2017-12-29T05:53:05.557Z,-1.30
2017-12-29T05:55:33.746Z,-1.10
2017-12-29T05:58:01.167Z,-1.20
2017-12-29T06:00:28.601Z,-1.10
2017-12-29T06:02:56.638Z,-1.00
2017-12-29T06:05:24.059Z,-1.00
2017-12-29T06:07:51.474Z,-1.00
2017-12-29T06:10:18.915Z,-1.00
2017-12-29T06:12:46.350Z,-0.90
2017-12-29T06:15:14.553Z,-0.90
2017-12-29T06:17:41.980Z,-0.90
2017-12-29T06:20:10.183Z,-0.80
2017-12-29T06:22:37.606Z,-0.80
2017-12-29T06:25:05.799Z,-0.70
2017-12-29T06:27:33.231Z,-0.70
2017-12-29T06:30:01.415Z,-0.70
2017-12-29T06:32:30.323Z,-0.70
2017-12-29T06:34:58.105Z,-0.70
2017-12-29T06:37:25.535Z,-0.70
2017-12-29T06:39:54.434Z,-0.70
2017-12-29T06:42:21.870Z,-0.70
2017-12-29T06:44:50.060Z,-0.70
2017-12-29T06:47:17.911Z,-0.70
2017-12-29T06:49:46.099Z,-0.70
2017-12-29T06:52:13.736Z,-0.70
2017-12-29T06:54:42.113Z,-0.70
2017-12-29T06:57:10.403Z,-0.70
2017-12-29T06:59:38.613Z,-0.70
2017-12-29T07:02:06.046Z,-0.70
2017-12-29T07:04:34.239Z,-0.70
2017-12-29T07:07:02.228Z,-0.70
2017-12-29T07:09:29.632Z,-0.70
2017-12-29T07:11:57.828Z,-0.50
2017-12-29T07:14:25.251Z,-0.60
2017-12-29T07:16:52.677Z,-0.50
2017-12-29T07:19:20.475Z,-0.40
2017-12-29T07:21:47.894Z,-0.40
2017-12-29T07:24:17.239Z,-0.40
2017-12-29T07:26:44.659Z,-0.40
2017-12-29T07:29:12.811Z,-0.40
2017-12-29T07:31:40.242Z,-0.30
2017-12-29T07:34:08.445Z,-0.30
2017-12-29T07:36:35.868Z,-0.30
2017-12-29T07:39:04.061Z,-0.30
2017-12-29T07:41:31.474Z,-0.30
2017-12-29T07:44:01.446Z,-0.30
2017-12-29T07:46:29.435Z,-0.30
2017-12-29T07:48:56.872Z,-0.30
2017-12-29T07:51:24.814Z,-0.30
2017-12-29T07:53:53.010Z,-0.30
2017-12-29T07:56:20.436Z,-0.30
2017-12-29T07:58:49.163Z,-0.30
2017-12-29T08:01:16.580Z,-0.30
2017-12-29T08:03:44.775Z,-0.20
2017-12-29T08:06:12.199Z,-0.20
2017-12-29T08:08:39.664Z,-0.20
2017-12-29T08:11:07.850Z,-0.20
2017-12-29T08:13:36.064Z,-0.20
2017-12-29T08:16:04.177Z,-0.20
2017-12-29T08:18:31.799Z,-0.20
2017-12-29T08:20:59.226Z,-0.10
2017-12-29T08:23:27.204Z,-0.10
2017-12-29T08:25:56.131Z,0.00
2017-12-29T08:28:23.930Z,0.10
2017-12-29T08:30:52.127Z,0.30
2017-12-29T08:33:19.550Z,0.30
2017-12-29T08:35:46.976Z,0.40
2017-12-29T08:38:15.164Z,0.40
2017-12-29T08:40:42.594Z,0.40
2017-12-29T08:43:10.026Z,0.50
2017-12-29T08:45:38.206Z,0.50
2017-12-29T08:48:05.633Z,0.50
2017-12-29T08:50:33.055Z,0.50
2017-12-29T08:53:00.480Z,0.60
2017-12-29T08:55:27.906Z,0.60
2017-12-29T08:57:56.090Z,0.80
2017-12-29T09:00:24.686Z,0.80
2017-12-29T09:02:52.090Z,0.80
2017-12-29T09:05:20.288Z,0.80
2017-12-29T09:07:47.701Z,0.80
2017-12-29T09:10:15.126Z,0.70
2017-12-29T09:12:42.550Z,0.70
2017-12-29T09:15:10.683Z,0.70
2017-12-29T09:17:38.102Z,0.90
2017-12-29T09:20:06.283Z,1.70
2017-12-29T09:22:34.485Z,2.00
2017-12-29T09:25:02.609Z,1.90
2017-12-29T09:27:30.015Z,2.10
2017-12-29T09:29:57.441Z,2.30
2017-12-29T09:32:25.667Z,2.10
2017-12-29T09:34:53.087Z,2.00
2017-12-29T09:37:20.511Z,1.90
2017-12-29T09:39:47.922Z,1.80
2017-12-29T09:42:17.195Z,2.00
2017-12-29T09:44:44.864Z,2.00
2017-12-29T09:47:12.283Z,1.90
2017-12-29T09:49:39.706Z,1.60
2017-12-29T09:52:07.123Z,1.60
2017-12-29T09:54:34.540Z,1.60
2017-12-29T09:57:01.966Z,1.60
2017-12-29T09:59:29.391Z,1.50
2017-12-29T10:01:56.820Z,1.60
2017-12-29T10:04:24.234Z,1.60
2017-12-29T10:06:51.654Z,1.70
2017-12-29T10:09:19.849Z,1.50
2017-12-29T10:11:47.266Z,1.50
2017-12-29T10:14:15.152Z,1.40
2017-12-29T10:16:43.339Z,1.30
2017-12-29T10:19:11.146Z,1.30
2017-12-29T10:21:38.563Z,1.30
2017-12-29T10:24:05.997Z,1.20
2017-12-29T10:26:34.177Z,1.20
2017-12-29T10:29:02.368Z,1.20
2017-12-29T10:31:29.788Z,1.20
2017-12-29T10:33:57.205Z,1.20
2017-12-29T10:36:25.417Z,1.30
2017-12-29T10:38:52.830Z,1.30
2017-12-29T10:41:20.367Z,1.40
2017-12-29T10:43:47.790Z,1.40
2017-12-29T10:46:15.206Z,1.40
2017-12-29T10:48:42.622Z,1.30
2017-12-29T10:51:10.816Z,1.30
2017-12-29T10:53:38.248Z,1.20
2017-12-29T10:56:06.962Z,1.20
2017-12-29T10:58:34.398Z,1.20
2017-12-29T11:01:02.579Z,1.20
2017-12-29T11:03:30.008Z,1.20
2017-12-29T11:05:57.419Z,1.20
2017-12-29T11:08:25.846Z,1.30
2017-12-29T11:10:53.226Z,1.30
2017-12-29T11:13:20.647Z,1.40
2017-12-29T11:15:48.504Z,1.50
2017-12-29T11:18:15.914Z,1.70
2017-12-29T11:20:43.344Z,2.00
2017-12-29T11:23:11.167Z,2.30
2017-12-29T11:25:38.586Z,2.30
2017-12-29T11:28:08.598Z,2.30
2017-12-29T11:30:36.556Z,2.20
2017-12-29T11:33:04.828Z,2.10
2017-12-29T11:35:32.249Z,2.10
2017-12-29T11:37:59.666Z,2.10
2017-12-29T11:40:27.092Z,2.10
2017-12-29T11:42:54.516Z,2.10
2017-12-29T11:45:22.339Z,2.20
2017-12-29T11:47:51.714Z,2.40
2017-12-29T11:50:19.592Z,2.40
2017-12-29T11:52:47.784Z,2.30
2017-12-29T11:55:16.895Z,2.30
2017-12-29T11:57:45.286Z,2.30
2017-12-29T12:00:12.699Z,2.20
2017-12-29T12:02:40.875Z,2.20
2017-12-29T12:05:09.071Z,2.10
2017-12-29T12:07:38.066Z,2.20
2017-12-29T12:10:05.486Z,2.20
2017-12-29T12:12:32.906Z,2.30
2017-12-29T12:15:00.339Z,2.40
2017-12-29T12:17:28.563Z,2.40
2017-12-29T12:19:55.993Z,2.40
2017-12-29T12:22:23.420Z,2.50
2017-12-29T12:24:50.840Z,2.50
2017-12-29T12:27:18.261Z,2.60
2017-12-29T12:29:45.685Z,2.70
2017-12-29T12:32:14.290Z,2.70
2017-12-29T12:34:41.713Z,2.70
2017-12-29T12:37:09.899Z,2.70
2017-12-29T12:39:37.318Z,2.70
2017-12-29T12:42:04.755Z,2.70
2017-12-29T12:44:32.154Z,2.80
2017-12-29T12:47:00.352Z,2.80
2017-12-29T12:49:27.775Z,2.80
2017-12-29T12:51:56.588Z,2.80
2017-12-29T12:54:25.279Z,2.70
2017-12-29T12:56:52.763Z,2.70
2017-12-29T12:59:21.460Z,2.60
2017-12-29T13:01:48.885Z,2.50
2017-12-29T13:04:16.308Z,2.50
2017-12-29T13:06:44.391Z,2.50
2017-12-29T13:09:11.795Z,2.40
2017-12-29T13:11:39.274Z,2.40
2017-12-29T13:14:06.636Z,2.40
2017-12-29T13:16:34.084Z,2.40
2017-12-29T13:19:02.267Z,2.50
2017-12-29T13:21:29.691Z,2.50
2017-12-29T13:23:57.118Z,2.50
2017-12-29T13:26:28.257Z,2.60
2017-12-29T13:28:56.463Z,2.60
2017-12-29T13:31:23.880Z,2.60
2017-12-29T13:34:13.306Z,2.70
2017-12-29T13:36:40.724Z,2.70
2017-12-29T13:39:08.827Z,2.70
2017-12-29T13:41:37.112Z,2.70
2017-12-29T13:44:11.942Z,2.70
2017-12-29T13:46:39.358Z,2.70
2017-12-29T13:49:07.218Z,2.70
2017-12-29T13:51:35.391Z,2.60
2017-12-29T13:54:03.251Z,2.60
2017-12-29T13:56:31.441Z,2.60
2017-12-29T13:58:59.268Z,2.60
2017-12-29T14:01:26.688Z,2.60
2017-12-29T14:03:54.106Z,2.60
2017-12-29T14:06:22.300Z,2.60
2017-12-29T14:08:49.719Z,2.60
2017-12-29T14:11:17.134Z,2.50
2017-12-29T14:13:44.572Z,2.50
2017-12-29T14:16:12.788Z,2.50
2017-12-29T14:18:40.222Z,2.50
2017-12-29T14:21:07.634Z,2.50
2017-12-29T14:23:35.819Z,2.50
2017-12-29T14:26:03.999Z,2.40
2017-12-29T14:28:32.926Z,2.40
2017-12-29T14:31:00.345Z,2.40
2017-12-29T14:33:28.922Z,2.40
2017-12-29T14:35:56.894Z,2.40
2017-12-29T14:38:25.646Z,2.40
2017-12-29T14:40:53.378Z,2.40
2017-12-29T14:43:20.771Z,2.40
2017-12-29T14:45:48.993Z,2.40
2017-12-29T14:48:17.469Z,2.40
2017-12-29T14:50:44.892Z,2.40
2017-12-29T14:53:13.477Z,2.40
2017-12-29T14:55:40.902Z,2.40
2017-12-29T14:58:28.722Z,2.40
2017-12-29T15:00:56.163Z,2.40
2017-12-29T15:03:23.580Z,2.40
2017-12-29T15:05:51.004Z,2.40
2017-12-29T15:08:18.414Z,2.40
2017-12-29T15:10:46.620Z,2.30
2017-12-29T15:13:14.027Z,2.30
2017-12-29T15:16:00.772Z,2.30
2017-12-29T15:18:40.819Z,2.30
2017-12-29T15:21:08.243Z,2.30
2017-12-29T15:23:35.672Z,2.30
2017-12-29T15:26:03.100Z,2.30
2017-12-29T15:28:30.520Z,2.30
2017-12-29T15:30:57.951Z,2.30
2017-12-29T15:33:28.652Z,2.30
2017-12-29T15:35:56.830Z,2.40
2017-12-29T15:38:24.256Z,2.40
2017-12-29T15:40:56.286Z,2.40
2017-12-29T15:43:23.844Z,2.40
2017-12-29T15:45:51.337Z,2.40
2017-12-29T15:48:19.560Z,2.50
2017-12-29T15:50:50.243Z,2.40
2017-12-29T15:53:18.489Z,2.30
2017-12-29T15:55:45.969Z,2.30
2017-12-29T15:58:16.664Z,2.10
2017-12-29T16:00:54.645Z,2.10
2017-12-29T16:03:22.440Z,2.10
2017-12-29T16:05:49.935Z,2.00
2017-12-29T16:08:18.560Z,1.90
2017-12-29T16:10:46.427Z,1.90
2017-12-29T16:13:15.700Z,1.80
2017-12-29T16:15:43.694Z,1.70
2017-12-29T16:18:11.666Z,1.50
2017-12-29T16:20:39.115Z,1.40
2017-12-29T16:23:06.539Z,1.30
2017-12-29T16:25:34.751Z,0.90
2017-12-29T16:28:02.172Z,0.90
2017-12-29T16:30:30.350Z,0.60
2017-12-29T16:32:58.564Z,0.50
2017-12-29T16:35:25.977Z,0.40
2017-12-29T16:40:54.463Z,0.00
2017-12-29T16:43:21.891Z,-0.10
2017-12-29T16:45:49.324Z,-0.20
2017-12-29T16:48:16.748Z,-0.30
2017-12-29T16:50:44.927Z,-0.40
2017-12-29T16:53:13.192Z,-0.40
2017-12-29T16:55:40.608Z,-0.50
2017-12-29T16:58:08.081Z,-0.40
2017-12-29T17:00:35.512Z,-0.40
2017-12-29T17:03:03.352Z,-0.40
2017-12-29T17:05:30.781Z,-0.40
2017-12-29T17:07:58.384Z,-0.50
2017-12-29T17:10:25.815Z,-0.50
2017-12-29T17:12:54.020Z,-0.50
2017-12-29T17:15:21.994Z,-0.50
2017-12-29T17:17:49.419Z,-0.50
2017-12-29T17:20:18.243Z,-0.40
2017-12-29T17:22:52.219Z,-0.50
2017-12-29T17:25:20.432Z,-0.40
2017-12-29T17:27:48.263Z,-0.50
2017-12-29T17:30:15.683Z,-0.40
2017-12-29T17:32:43.120Z,-0.40
2017-12-29T17:35:10.534Z,-0.40
2017-12-29T17:37:37.958Z,-0.40
2017-12-29T17:40:05.375Z,-0.30
2017-12-29T17:42:32.810Z,-0.30
2017-12-29T17:45:00.777Z,-0.30
2017-12-29T17:47:28.253Z,-0.30
2017-12-29T17:49:55.643Z,-0.30
2017-12-29T17:52:24.035Z,-0.30
2017-12-29T17:54:51.460Z,-0.20
2017-12-29T17:57:18.875Z,-0.20
2017-12-29T17:59:46.305Z,-0.20
2017-12-29T18:02:14.318Z,-0.20
2017-12-29T18:04:41.751Z,-0.20
2017-12-29T18:07:12.692Z,-0.20
2017-12-29T18:09:40.095Z,-0.20
2017-12-29T18:12:07.519Z,-0.10
2017-12-29T18:14:34.948Z,-0.10
2017-12-29T18:17:02.379Z,-0.10
2017-12-29T18:19:30.318Z,-0.10
2017-12-29T18:21:57.760Z,-0.10
2017-12-29T18:24:25.178Z,-0.10
2017-12-29T18:26:52.625Z,-0.20
2017-12-29T18:29:20.308Z,-0.20
2017-12-29T18:31:47.820Z,-0.20
2017-12-29T18:34:15.238Z,-0.20
2017-12-29T18:36:45.851Z,-0.20
2017-12-29T18:39:14.052Z,-0.20
2017-12-29T18:41:42.348Z,-0.20
2017-12-29T18:44:12.782Z,-0.20
2017-12-29T18:46:40.212Z,-0.20
2017-12-29T18:49:07.634Z,-0.10
2017-12-29T18:51:35.067Z,-0.10
2017-12-29T18:54:02.491Z,-0.10
2017-12-29T18:56:29.915Z,-0.10
2017-12-29T18:58:58.135Z,-0.10
2017-12-29T19:01:25.547Z,-0.10
2017-12-29T19:03:54.013Z,-0.10
2017-12-29T19:06:22.172Z,0.00
2017-12-29T19:08:49.826Z,-0.10
2017-12-29T19:11:17.248Z,0.00
2017-12-29T19:13:45.082Z,0.00
2017-12-29T19:16:13.043Z,0.00
2017-12-29T19:18:40.495Z,0.00
2017-12-29T19:21:07.919Z,0.00
2017-12-29T19:23:36.084Z,0.00
2017-12-29T19:26:03.507Z,0.00
2017-12-29T19:28:31.714Z,0.00
2017-12-29T19:31:02.920Z,0.00
2017-12-29T19:33:30.344Z,0.00
2017-12-29T19:35:57.772Z,0.00
2017-12-29T19:38:26.091Z,0.00
2017-12-29T19:40:53.515Z,0.00
2017-12-29T19:43:20.943Z,0.10
2017-12-29T19:45:48.429Z,0.10
2017-12-29T19:48:15.782Z,0.10
2017-12-29T19:50:43.899Z,0.10
2017-12-29T19:53:11.333Z,0.10
2017-12-29T19:55:38.769Z,0.20
2017-12-29T19:58:06.204Z,0.20
2017-12-29T20:00:34.347Z,0.20
2017-12-29T20:03:01.754Z,0.20
2017-12-29T20:05:30.484Z,0.30
2017-12-29T20:07:57.878Z,0.30
2017-12-29T20:10:25.876Z,0.30
2017-12-29T20:12:53.308Z,0.30
2017-12-29T20:15:20.810Z,0.30
2017-12-29T20:18:09.227Z,0.30
2017-12-29T20:20:36.672Z,0.30
2017-12-29T20:23:04.090Z,0.20
2017-12-29T20:25:31.530Z,0.20
2017-12-29T20:27:58.964Z,0.20
2017-12-29T20:30:26.387Z,0.10
2017-12-29T20:32:54.118Z,0.10
2017-12-29T20:35:21.552Z,0.00
2017-12-29T20:38:10.806Z,0.00
2017-12-29T20:40:38.238Z,-0.10
2017-12-29T20:43:05.723Z,-0.10
2017-12-29T20:45:33.863Z,0.00
2017-12-29T20:48:01.281Z,0.00
2017-12-29T20:50:29.742Z,0.00
2017-12-29T20:52:57.184Z,0.00
2017-12-29T20:55:25.373Z,0.00
2017-12-29T20:57:52.831Z,0.00
2017-12-29T21:00:20.264Z,0.00
2017-12-29T21:02:47.701Z,0.00
2017-12-29T21:05:15.901Z,0.10
2017-12-29T21:07:53.339Z,0.10
2017-12-29T21:10:21.365Z,0.10
2017-12-29T21:12:49.236Z,0.10
2017-12-29T21:15:16.700Z,0.10
2017-12-29T21:17:44.148Z,0.10
2017-12-29T21:20:12.080Z,0.10
2017-12-29T21:22:40.303Z,0.20
2017-12-29T21:25:07.768Z,0.10
2017-12-29T21:27:35.982Z,0.20
2017-12-29T21:30:04.246Z,0.20
2017-12-29T21:32:31.729Z,0.20
2017-12-29T21:34:59.197Z,0.20
2017-12-29T21:37:26.714Z,0.30
2017-12-29T21:39:54.165Z,0.30
2017-12-29T21:42:21.673Z,0.30
2017-12-29T21:44:49.148Z,0.30
2017-12-29T21:47:16.646Z,0.30
2017-12-29T21:49:44.128Z,0.40
2017-12-29T21:52:13.171Z,0.40
2017-12-29T21:54:41.276Z,0.40
2017-12-29T21:57:09.327Z,0.50
2017-12-29T21:59:36.821Z,0.50
2017-12-29T22:02:05.065Z,0.60
2017-12-29T22:04:32.632Z,0.50
2017-12-29T22:07:00.822Z,0.60
2017-12-29T22:09:28.285Z,0.60
2017-12-29T22:11:56.553Z,0.60
2017-12-29T22:14:25.625Z,0.60
2017-12-29T22:16:53.798Z,0.60
2017-12-29T22:19:21.243Z,0.60
2017-12-29T22:21:48.661Z,0.60
2017-12-29T22:24:16.098Z,0.60
2017-12-29T22:26:44.291Z,0.60
2017-12-29T22:29:11.737Z,0.60
2017-12-29T22:31:39.922Z,0.60
2017-12-29T22:34:19.503Z,0.60
2017-12-29T22:36:46.933Z,0.60
2017-12-29T22:39:14.355Z,0.60
2017-12-29T22:41:42.543Z,0.50
2017-12-29T22:44:11.575Z,0.50
2017-12-29T22:46:38.977Z,0.40
2017-12-29T22:49:07.180Z,0.30
2017-12-29T22:51:34.603Z,0.20
2017-12-29T22:54:02.027Z,0.20
2017-12-29T22:56:29.733Z,0.10
2017-12-29T22:58:57.138Z,0.10
2017-12-29T23:01:32.991Z,0.10
2017-12-29T23:04:00.435Z,0.10
2017-12-29T23:06:28.570Z,0.20
2017-12-29T23:08:56.009Z,0.20
2017-12-29T23:11:23.957Z,0.30
2017-12-29T23:13:51.415Z,0.20
2017-12-29T23:16:18.828Z,0.10
2017-12-29T23:18:47.024Z,0.20
2017-12-29T23:21:14.445Z,0.20
2017-12-29T23:23:43.650Z,0.20
2017-12-29T23:26:11.841Z,0.20
2017-12-29T23:28:40.118Z,0.20
2017-12-29T23:31:08.278Z,0.20
2017-12-29T23:33:36.119Z,0.10
2017-12-29T23:36:03.612Z,0.20
2017-12-29T23:38:31.440Z,0.20
2017-12-29T23:40:58.974Z,0.20
2017-12-29T23:43:26.414Z,0.20
2017-12-29T23:45:54.719Z,0.30
2017-12-29T23:48:23.417Z,0.40
2017-12-29T23:50:50.847Z,0.70
2017-12-29T23:53:18.264Z,0.90
2017-12-29T23:55:46.470Z,0.70
2017-12-29T23:58:14.537Z,0.70
